sensor_id;sensor_type;location;lat;lon;timestamp;pressure;altitude;pressure_sealevel;temperature;humidity
62055;BME280;48653;51.742;-1.256;2023-02-08T00:03:47;103120.39;;;-0.16;43.04
62055;BME280;48653;51.742;-1.256;2023-02-08T00:06:12;103119.72;;;1.57;42.45
62055;BME280;48653;51.742;-1.256;2023-02-08T00:08:37;103123.18;;;1.84;42.45
62055;BME280;48653;51.742;-1.256;2023-02-08T00:11:03;103131.78;;;1.31;43.26
62055;BME280;48653;51.742;-1.256;2023-02-08T00:13:27;103130.50;;;1.50;43.27
62055;BME280;48653;51.742;-1.256;2023-02-08T00:15:54;103127.74;;;1.26;43.74
62055;BME280;48653;51.742;-1.256;2023-02-08T00:18:19;103130.96;;;1.18;44.11
62055;BME280;48653;51.742;-1.256;2023-02-08T00:20:44;103131.92;;;1.40;43.48
62055;BME280;48653;51.742;-1.256;2023-02-08T00:23:10;103131.87;;;1.23;43.70
62055;BME280;48653;51.742;-1.256;2023-02-08T00:25:35;103127.47;;;0.91;44.30
62055;BME280;48653;51.742;-1.256;2023-02-08T00:28:01;103123.02;;;0.64;44.33
62055;BME280;48653;51.742;-1.256;2023-02-08T00:30:27;103123.09;;;1.18;43.58
62055;BME280;48653;51.742;-1.256;2023-02-08T00:32:52;103122.65;;;1.05;43.92
62055;BME280;48653;51.742;-1.256;2023-02-08T00:35:18;103121.11;;;1.41;43.09
62055;BME280;48653;51.742;-1.256;2023-02-08T00:37:43;103116.12;;;0.94;43.63
62055;BME280;48653;51.742;-1.256;2023-02-08T00:40:10;103116.92;;;0.86;43.91
62055;BME280;48653;51.742;-1.256;2023-02-08T00:42:34;103119.30;;;0.72;44.30
62055;BME280;48653;51.742;-1.256;2023-02-08T00:45:00;103116.38;;;0.91;44.58
62055;BME280;48653;51.742;-1.256;2023-02-08T00:47:25;103113.00;;;0.84;44.60
62055;BME280;48653;51.742;-1.256;2023-02-08T00:49:50;103108.69;;;1.08;43.38
62055;BME280;48653;51.742;-1.256;2023-02-08T00:52:16;103111.17;;;0.35;45.23
62055;BME280;48653;51.742;-1.256;2023-02-08T00:54:41;103111.95;;;0.39;45.59
62055;BME280;48653;51.742;-1.256;2023-02-08T00:57:07;103105.97;;;0.26;44.72
62055;BME280;48653;51.742;-1.256;2023-02-08T00:59:32;103096.96;;;0.75;43.82
62055;BME280;48653;51.742;-1.256;2023-02-08T01:01:59;103092.64;;;0.81;43.51
62055;BME280;48653;51.742;-1.256;2023-02-08T01:04:24;103089.24;;;0.84;42.67
62055;BME280;48653;51.742;-1.256;2023-02-08T01:06:49;103087.43;;;0.67;43.71
62055;BME280;48653;51.742;-1.256;2023-02-08T01:09:14;103085.61;;;1.24;43.08
62055;BME280;48653;51.742;-1.256;2023-02-08T01:11:40;103082.55;;;0.84;43.24
62055;BME280;48653;51.742;-1.256;2023-02-08T01:14:05;103079.45;;;0.70;43.09
62055;BME280;48653;51.742;-1.256;2023-02-08T01:16:32;103076.60;;;0.76;43.00
62055;BME280;48653;51.742;-1.256;2023-02-08T01:18:58;103071.36;;;0.83;42.79
62055;BME280;48653;51.742;-1.256;2023-02-08T01:21:25;103071.98;;;1.08;42.71
62055;BME280;48653;51.742;-1.256;2023-02-08T01:23:48;103076.99;;;1.19;42.32
62055;BME280;48653;51.742;-1.256;2023-02-08T01:26:15;103079.01;;;1.03;43.70
62055;BME280;48653;51.742;-1.256;2023-02-08T01:28:49;103078.08;;;0.82;43.94
62055;BME280;48653;51.742;-1.256;2023-02-08T01:31:05;103077.86;;;0.62;44.28
62055;BME280;48653;51.742;-1.256;2023-02-08T01:33:30;103080.62;;;0.34;44.32
62055;BME280;48653;51.742;-1.256;2023-02-08T01:35:56;103086.87;;;0.53;44.56
62055;BME280;48653;51.742;-1.256;2023-02-08T01:38:22;103081.27;;;0.23;45.31
62055;BME280;48653;51.742;-1.256;2023-02-08T01:40:47;103077.77;;;0.63;44.62
62055;BME280;48653;51.742;-1.256;2023-02-08T01:43:20;103081.10;;;0.51;44.26
62055;BME280;48653;51.742;-1.256;2023-02-08T01:45:39;103078.60;;;0.17;45.44
62055;BME280;48653;51.742;-1.256;2023-02-08T01:48:08;103080.31;;;0.61;44.68
62055;BME280;48653;51.742;-1.256;2023-02-08T01:50:40;103081.83;;;-0.04;45.26
62055;BME280;48653;51.742;-1.256;2023-02-08T01:55:23;103066.92;;;0.83;43.61
62055;BME280;48653;51.742;-1.256;2023-02-08T01:57:48;103064.46;;;0.76;43.90
62055;BME280;48653;51.742;-1.256;2023-02-08T02:00:15;103062.05;;;0.12;44.66
62055;BME280;48653;51.742;-1.256;2023-02-08T02:02:39;103064.47;;;0.60;43.34
62055;BME280;48653;51.742;-1.256;2023-02-08T02:05:03;103059.26;;;0.54;43.46
62055;BME280;48653;51.742;-1.256;2023-02-08T02:07:29;103052.01;;;0.42;44.38
62055;BME280;48653;51.742;-1.256;2023-02-08T02:09:58;103047.28;;;0.79;43.37
62055;BME280;48653;51.742;-1.256;2023-02-08T02:12:19;103047.79;;;0.45;43.31
62055;BME280;48653;51.742;-1.256;2023-02-08T02:14:44;103047.10;;;0.52;43.74
62055;BME280;48653;51.742;-1.256;2023-02-08T02:17:10;103048.57;;;0.75;43.96
62055;BME280;48653;51.742;-1.256;2023-02-08T02:19:42;103050.14;;;0.23;44.83
62055;BME280;48653;51.742;-1.256;2023-02-08T02:22:12;103047.27;;;0.66;43.99
62055;BME280;48653;51.742;-1.256;2023-02-08T02:27:09;103041.13;;;0.68;44.15
62055;BME280;48653;51.742;-1.256;2023-02-08T02:31:58;103047.10;;;0.53;44.23
62055;BME280;48653;51.742;-1.256;2023-02-08T02:34:11;103044.69;;;0.49;44.45
62055;BME280;48653;51.742;-1.256;2023-02-08T02:36:39;103044.24;;;0.37;44.35
62055;BME280;48653;51.742;-1.256;2023-02-08T02:39:06;103040.04;;;0.28;44.63
62055;BME280;48653;51.742;-1.256;2023-02-08T02:41:32;103033.20;;;-0.00;45.62
62055;BME280;48653;51.742;-1.256;2023-02-08T02:43:54;103027.53;;;-0.36;46.08
62055;BME280;48653;51.742;-1.256;2023-02-08T02:46:22;103026.74;;;-0.41;46.40
62055;BME280;48653;51.742;-1.256;2023-02-08T02:48:46;103023.75;;;0.36;45.25
62055;BME280;48653;51.742;-1.256;2023-02-08T02:51:09;103015.75;;;0.58;44.73
62055;BME280;48653;51.742;-1.256;2023-02-08T02:53:36;103018.07;;;0.17;44.96
62055;BME280;48653;51.742;-1.256;2023-02-08T02:56:01;103018.57;;;0.18;44.54
62055;BME280;48653;51.742;-1.256;2023-02-08T02:58:24;103022.49;;;-0.12;45.08
62055;BME280;48653;51.742;-1.256;2023-02-08T03:00:51;103022.54;;;0.00;44.69
62055;BME280;48653;51.742;-1.256;2023-02-08T03:03:17;103021.44;;;0.36;44.69
62055;BME280;48653;51.742;-1.256;2023-02-08T03:05:39;103015.01;;;-0.10;44.74
62055;BME280;48653;51.742;-1.256;2023-02-08T03:08:14;103011.05;;;-0.13;45.33
62055;BME280;48653;51.742;-1.256;2023-02-08T03:10:43;103007.21;;;-0.39;45.25
62055;BME280;48653;51.742;-1.256;2023-02-08T03:13:02;103001.86;;;0.07;45.20
62055;BME280;48653;51.742;-1.256;2023-02-08T03:15:27;103004.81;;;0.33;44.46
62055;BME280;48653;51.742;-1.256;2023-02-08T03:17:55;102999.36;;;-0.05;45.44
62055;BME280;48653;51.742;-1.256;2023-02-08T03:20:13;102997.73;;;-0.16;45.59
62055;BME280;48653;51.742;-1.256;2023-02-08T03:22:44;102993.03;;;0.03;45.60
62055;BME280;48653;51.742;-1.256;2023-02-08T03:25:08;102993.51;;;0.21;44.79
62055;BME280;48653;51.742;-1.256;2023-02-08T03:27:33;102990.43;;;-0.06;44.80
62055;BME280;48653;51.742;-1.256;2023-02-08T03:29:57;102991.19;;;-0.15;44.47
62055;BME280;48653;51.742;-1.256;2023-02-08T03:32:22;102993.77;;;-0.24;45.15
62055;BME280;48653;51.742;-1.256;2023-02-08T03:34:47;102991.37;;;-0.55;45.23
62055;BME280;48653;51.742;-1.256;2023-02-08T03:37:13;102987.84;;;-0.23;45.01
62055;BME280;48653;51.742;-1.256;2023-02-08T03:39:36;102990.65;;;0.00;45.02
62055;BME280;48653;51.742;-1.256;2023-02-08T03:42:05;102989.43;;;-0.66;45.44
62055;BME280;48653;51.742;-1.256;2023-02-08T03:44:31;102988.88;;;-0.49;45.55
62055;BME280;48653;51.742;-1.256;2023-02-08T03:46:55;102984.18;;;0.00;44.82
62055;BME280;48653;51.742;-1.256;2023-02-08T03:49:20;102987.27;;;-0.32;45.66
62055;BME280;48653;51.742;-1.256;2023-02-08T03:51:43;102987.47;;;-0.83;46.27
62055;BME280;48653;51.742;-1.256;2023-02-08T03:54:20;102983.37;;;-0.11;45.02
62055;BME280;48653;51.742;-1.256;2023-02-08T03:56:45;102981.42;;;-0.28;45.42
62055;BME280;48653;51.742;-1.256;2023-02-08T03:59:01;102986.71;;;-0.24;45.82
62055;BME280;48653;51.742;-1.256;2023-02-08T04:01:29;102987.57;;;-0.40;44.97
62055;BME280;48653;51.742;-1.256;2023-02-08T04:03:51;102980.16;;;-0.50;45.53
62055;BME280;48653;51.742;-1.256;2023-02-08T04:06:15;102984.10;;;-0.55;45.72
62055;BME280;48653;51.742;-1.256;2023-02-08T04:08:41;102985.49;;;-0.87;46.06
62055;BME280;48653;51.742;-1.256;2023-02-08T04:11:07;102983.94;;;-0.65;45.84
62055;BME280;48653;51.742;-1.256;2023-02-08T04:13:32;102984.18;;;-0.53;45.21
62055;BME280;48653;51.742;-1.256;2023-02-08T04:15:58;102988.23;;;-0.84;46.32
62055;BME280;48653;51.742;-1.256;2023-02-08T04:18:24;102983.08;;;-0.93;46.47
62055;BME280;48653;51.742;-1.256;2023-02-08T04:20:49;102984.15;;;-0.72;46.03
62055;BME280;48653;51.742;-1.256;2023-02-08T04:23:14;102983.64;;;-0.70;45.64
62055;BME280;48653;51.742;-1.256;2023-02-08T04:25:39;102985.79;;;-0.89;45.85
62055;BME280;48653;51.742;-1.256;2023-02-08T04:28:05;102986.66;;;-0.74;45.64
62055;BME280;48653;51.742;-1.256;2023-02-08T04:30:30;102985.43;;;-0.86;45.56
62055;BME280;48653;51.742;-1.256;2023-02-08T04:32:56;102986.10;;;-0.72;45.37
62055;BME280;48653;51.742;-1.256;2023-02-08T04:35:22;102994.15;;;-0.41;44.82
62055;BME280;48653;51.742;-1.256;2023-02-08T04:37:47;102995.86;;;-0.92;45.92
62055;BME280;48653;51.742;-1.256;2023-02-08T04:40:12;102991.42;;;-0.57;44.85
62055;BME280;48653;51.742;-1.256;2023-02-08T04:42:38;102988.26;;;-0.42;44.43
62055;BME280;48653;51.742;-1.256;2023-02-08T04:45:04;102987.17;;;-0.87;45.33
62055;BME280;48653;51.742;-1.256;2023-02-08T04:47:29;102979.64;;;-0.68;44.84
62055;BME280;48653;51.742;-1.256;2023-02-08T04:49:54;102983.25;;;-0.72;45.34
62055;BME280;48653;51.742;-1.256;2023-02-08T04:52:19;102979.60;;;-0.83;44.93
62055;BME280;48653;51.742;-1.256;2023-02-08T04:54:45;102978.76;;;-0.92;45.28
62055;BME280;48653;51.742;-1.256;2023-02-08T04:57:12;102972.38;;;-0.77;44.84
62055;BME280;48653;51.742;-1.256;2023-02-08T04:59:35;102970.42;;;-1.18;45.55
62055;BME280;48653;51.742;-1.256;2023-02-08T05:02:00;102968.67;;;-0.78;44.67
62055;BME280;48653;51.742;-1.256;2023-02-08T05:04:26;102964.10;;;-1.19;45.58
62055;BME280;48653;51.742;-1.256;2023-02-08T05:06:52;102958.27;;;-1.06;45.77
62055;BME280;48653;51.742;-1.256;2023-02-08T05:09:17;102954.76;;;-1.51;46.38
62055;BME280;48653;51.742;-1.256;2023-02-08T05:11:43;102950.28;;;-1.05;45.70
62055;BME280;48653;51.742;-1.256;2023-02-08T05:14:08;102945.72;;;-1.25;45.58
62055;BME280;48653;51.742;-1.256;2023-02-08T05:16:34;102945.17;;;-0.69;44.89
62055;BME280;48653;51.742;-1.256;2023-02-08T05:18:59;102943.81;;;-0.68;44.85
62055;BME280;48653;51.742;-1.256;2023-02-08T05:21:25;102940.30;;;-1.10;45.18
62055;BME280;48653;51.742;-1.256;2023-02-08T05:23:51;102935.10;;;-1.01;44.83
62055;BME280;48653;51.742;-1.256;2023-02-08T05:26:16;102929.80;;;-0.88;44.25
62055;BME280;48653;51.742;-1.256;2023-02-08T05:28:42;102927.00;;;-1.18;45.17
62055;BME280;48653;51.742;-1.256;2023-02-08T05:31:10;102923.98;;;-1.40;45.42
62055;BME280;48653;51.742;-1.256;2023-02-08T05:33:33;102919.28;;;-1.15;45.73
62055;BME280;48653;51.742;-1.256;2023-02-08T05:35:58;102920.31;;;-1.21;45.62
62055;BME280;48653;51.742;-1.256;2023-02-08T05:38:23;102922.63;;;-1.08;45.19
62055;BME280;48653;51.742;-1.256;2023-02-08T05:40:49;102924.71;;;-1.30;45.66
62055;BME280;48653;51.742;-1.256;2023-02-08T05:43:14;102923.37;;;-1.25;45.35
62055;BME280;48653;51.742;-1.256;2023-02-08T05:45:40;102928.01;;;-1.17;45.04
62055;BME280;48653;51.742;-1.256;2023-02-08T05:48:06;102931.64;;;-1.51;45.23
62055;BME280;48653;51.742;-1.256;2023-02-08T05:50:31;102932.19;;;-1.30;45.36
62055;BME280;48653;51.742;-1.256;2023-02-08T05:52:56;102927.46;;;-1.19;45.30
62055;BME280;48653;51.742;-1.256;2023-02-08T05:55:22;102925.35;;;-1.12;44.89
62055;BME280;48653;51.742;-1.256;2023-02-08T05:57:48;102923.24;;;-1.11;44.74
62055;BME280;48653;51.742;-1.256;2023-02-08T06:00:14;102928.31;;;-0.98;45.15
62055;BME280;48653;51.742;-1.256;2023-02-08T06:02:39;102927.70;;;-1.11;44.61
62055;BME280;48653;51.742;-1.256;2023-02-08T06:05:05;102929.92;;;-1.11;44.89
62055;BME280;48653;51.742;-1.256;2023-02-08T06:07:30;102930.18;;;-1.15;45.08
62055;BME280;48653;51.742;-1.256;2023-02-08T06:09:56;102931.56;;;-1.19;45.72
62055;BME280;48653;51.742;-1.256;2023-02-08T06:12:21;102929.32;;;-1.40;46.05
62055;BME280;48653;51.742;-1.256;2023-02-08T06:14:47;102929.37;;;-1.44;45.84
62055;BME280;48653;51.742;-1.256;2023-02-08T06:17:12;102931.54;;;-1.30;46.03
62055;BME280;48653;51.742;-1.256;2023-02-08T06:19:37;102934.11;;;-1.25;46.19
62055;BME280;48653;51.742;-1.256;2023-02-08T06:22:03;102935.20;;;-1.12;45.98
62055;BME280;48653;51.742;-1.256;2023-02-08T06:24:28;102937.54;;;-1.28;45.95
62055;BME280;48653;51.742;-1.256;2023-02-08T06:26:54;102937.83;;;-0.99;45.85
62055;BME280;48653;51.742;-1.256;2023-02-08T06:29:20;102932.86;;;-1.43;45.89
62055;BME280;48653;51.742;-1.256;2023-02-08T06:31:45;102932.17;;;-1.11;45.80
62055;BME280;48653;51.742;-1.256;2023-02-08T06:34:10;102934.23;;;-1.12;46.42
62055;BME280;48653;51.742;-1.256;2023-02-08T06:36:35;102928.81;;;-0.99;45.75
62055;BME280;48653;51.742;-1.256;2023-02-08T06:39:01;102928.24;;;-1.17;45.97
62055;BME280;48653;51.742;-1.256;2023-02-08T06:41:26;102930.60;;;-0.94;46.71
62055;BME280;48653;51.742;-1.256;2023-02-08T06:43:52;102931.29;;;-0.99;46.52
62055;BME280;48653;51.742;-1.256;2023-02-08T06:46:18;102935.50;;;-0.97;46.24
62055;BME280;48653;51.742;-1.256;2023-02-08T06:48:43;102940.19;;;-1.00;46.72
62055;BME280;48653;51.742;-1.256;2023-02-08T06:51:09;102944.06;;;-1.25;46.86
62055;BME280;48653;51.742;-1.256;2023-02-08T06:53:35;102945.27;;;-1.63;47.88
62055;BME280;48653;51.742;-1.256;2023-02-08T06:56:00;102942.29;;;-0.96;46.80
62055;BME280;48653;51.742;-1.256;2023-02-08T06:58:26;102947.92;;;-0.41;45.89
62055;BME280;48653;51.742;-1.256;2023-02-08T07:00:52;102945.05;;;-1.17;46.66
62055;BME280;48653;51.742;-1.256;2023-02-08T07:03:17;102945.99;;;-0.82;46.08
62055;BME280;48653;51.742;-1.256;2023-02-08T07:05:42;102940.18;;;-0.68;45.63
62055;BME280;48653;51.742;-1.256;2023-02-08T07:08:08;102939.63;;;-0.82;46.16
62055;BME280;48653;51.742;-1.256;2023-02-08T07:10:34;102938.79;;;-0.76;45.86
62055;BME280;48653;51.742;-1.256;2023-02-08T07:13:00;102940.11;;;-0.29;46.59
62055;BME280;48653;51.742;-1.256;2023-02-08T07:15:24;102939.37;;;-1.10;47.78
62055;BME280;48653;51.742;-1.256;2023-02-08T07:17:49;102938.12;;;-1.27;48.00
62055;BME280;48653;51.742;-1.256;2023-02-08T07:20:15;102938.17;;;-1.05;47.79
62055;BME280;48653;51.742;-1.256;2023-02-08T07:22:41;102945.67;;;-0.65;47.21
62055;BME280;48653;51.742;-1.256;2023-02-08T07:25:08;102953.79;;;-0.71;47.03
62055;BME280;48653;51.742;-1.256;2023-02-08T07:27:32;102952.30;;;-0.86;46.81
62055;BME280;48653;51.742;-1.256;2023-02-08T07:29:57;102947.01;;;-0.97;47.77
62055;BME280;48653;51.742;-1.256;2023-02-08T07:32:23;102945.14;;;-0.44;47.18
62055;BME280;48653;51.742;-1.256;2023-02-08T07:34:49;102942.41;;;-0.73;47.17
62055;BME280;48653;51.742;-1.256;2023-02-08T07:37:14;102940.98;;;-0.52;46.95
62055;BME280;48653;51.742;-1.256;2023-02-08T07:39:40;102942.84;;;-0.88;47.39
62055;BME280;48653;51.742;-1.256;2023-02-08T07:42:07;102939.29;;;-0.54;46.94
62055;BME280;48653;51.742;-1.256;2023-02-08T07:44:31;102939.73;;;-0.97;48.16
62055;BME280;48653;51.742;-1.256;2023-02-08T07:46:56;102940.73;;;-0.77;48.73
62055;BME280;48653;51.742;-1.256;2023-02-08T07:49:22;102943.71;;;-0.89;48.43
62055;BME280;48653;51.742;-1.256;2023-02-08T07:51:47;102949.92;;;-1.34;49.82
62055;BME280;48653;51.742;-1.256;2023-02-08T07:54:13;102943.78;;;-0.94;49.78
62055;BME280;48653;51.742;-1.256;2023-02-08T07:56:38;102944.88;;;-0.68;48.19
62055;BME280;48653;51.742;-1.256;2023-02-08T07:59:04;102946.38;;;-0.90;48.40
62055;BME280;48653;51.742;-1.256;2023-02-08T08:01:30;102942.60;;;-1.01;48.62
62055;BME280;48653;51.742;-1.256;2023-02-08T08:03:55;102942.33;;;-0.32;49.42
62055;BME280;48653;51.742;-1.256;2023-02-08T08:06:21;102944.68;;;-0.66;48.69
62055;BME280;48653;51.742;-1.256;2023-02-08T08:08:46;102944.84;;;-0.66;48.56
62055;BME280;48653;51.742;-1.256;2023-02-08T08:11:11;102937.64;;;-1.05;50.05
62055;BME280;48653;51.742;-1.256;2023-02-08T08:13:37;102936.37;;;-0.56;48.71
62055;BME280;48653;51.742;-1.256;2023-02-08T08:16:02;102932.64;;;-1.13;51.08
62055;BME280;48653;51.742;-1.256;2023-02-08T08:18:27;102934.14;;;-1.11;51.81
62055;BME280;48653;51.742;-1.256;2023-02-08T08:20:53;102933.80;;;-1.03;52.23
62055;BME280;48653;51.742;-1.256;2023-02-08T08:23:18;102929.93;;;-0.69;51.22
62055;BME280;48653;51.742;-1.256;2023-02-08T08:25:44;102927.79;;;-0.50;50.05
62055;BME280;48653;51.742;-1.256;2023-02-08T08:28:09;102929.63;;;-0.96;50.90
62055;BME280;48653;51.742;-1.256;2023-02-08T08:30:35;102928.99;;;-0.49;50.58
62055;BME280;48653;51.742;-1.256;2023-02-08T08:33:00;102927.59;;;-0.37;50.22
62055;BME280;48653;51.742;-1.256;2023-02-08T08:35:26;102928.05;;;-0.67;51.40
62055;BME280;48653;51.742;-1.256;2023-02-08T08:37:51;102931.51;;;-1.00;52.66
62055;BME280;48653;51.742;-1.256;2023-02-08T08:40:16;102937.10;;;-0.95;52.77
62055;BME280;48653;51.742;-1.256;2023-02-08T08:42:41;102939.18;;;-0.26;50.97
62055;BME280;48653;51.742;-1.256;2023-02-08T08:45:08;102935.38;;;-0.51;51.25
62055;BME280;48653;51.742;-1.256;2023-02-08T08:47:33;102936.60;;;-0.53;51.09
62055;BME280;48653;51.742;-1.256;2023-02-08T08:49:59;102939.38;;;-0.01;50.43
62055;BME280;48653;51.742;-1.256;2023-02-08T08:52:24;102939.22;;;-0.35;51.01
62055;BME280;48653;51.742;-1.256;2023-02-08T08:54:49;102936.04;;;-0.21;51.15
62055;BME280;48653;51.742;-1.256;2023-02-08T08:57:14;102937.21;;;-0.38;51.36
62055;BME280;48653;51.742;-1.256;2023-02-08T08:59:39;102937.89;;;-0.40;51.93
62055;BME280;48653;51.742;-1.256;2023-02-08T09:02:05;102933.25;;;-0.30;51.96
62055;BME280;48653;51.742;-1.256;2023-02-08T09:04:30;102929.05;;;-0.87;52.88
62055;BME280;48653;51.742;-1.256;2023-02-08T09:06:56;102931.45;;;-0.43;51.67
62055;BME280;48653;51.742;-1.256;2023-02-08T09:09:22;102931.65;;;-0.93;52.65
62055;BME280;48653;51.742;-1.256;2023-02-08T09:11:48;102929.20;;;-0.30;52.03
62055;BME280;48653;51.742;-1.256;2023-02-08T09:14:13;102926.40;;;-0.05;51.73
62055;BME280;48653;51.742;-1.256;2023-02-08T09:16:39;102928.02;;;0.24;51.13
62055;BME280;48653;51.742;-1.256;2023-02-08T09:19:06;102925.75;;;0.34;50.12
62055;BME280;48653;51.742;-1.256;2023-02-08T09:21:30;102926.54;;;0.07;50.27
62055;BME280;48653;51.742;-1.256;2023-02-08T09:23:55;102925.21;;;0.12;50.85
62055;BME280;48653;51.742;-1.256;2023-02-08T09:26:21;102927.91;;;0.31;50.68
62055;BME280;48653;51.742;-1.256;2023-02-08T09:28:47;102932.28;;;0.32;50.98
62055;BME280;48653;51.742;-1.256;2023-02-08T09:31:17;102931.96;;;0.86;50.23
62055;BME280;48653;51.742;-1.256;2023-02-08T09:33:38;102936.46;;;1.14;49.87
62055;BME280;48653;51.742;-1.256;2023-02-08T09:36:03;102935.87;;;1.34;49.49
62055;BME280;48653;51.742;-1.256;2023-02-08T09:38:28;102934.42;;;1.42;49.33
62055;BME280;48653;51.742;-1.256;2023-02-08T09:41:00;102937.75;;;0.64;49.82
62055;BME280;48653;51.742;-1.256;2023-02-08T09:43:28;102945.30;;;1.93;48.25
62055;BME280;48653;51.742;-1.256;2023-02-08T09:45:49;102955.93;;;2.14;48.19
62055;BME280;48653;51.742;-1.256;2023-02-08T09:48:17;102952.05;;;1.37;48.88
62055;BME280;48653;51.742;-1.256;2023-02-08T09:50:39;102952.29;;;1.33;49.10
62055;BME280;48653;51.742;-1.256;2023-02-08T09:53:08;102947.09;;;1.37;49.02
62055;BME280;48653;51.742;-1.256;2023-02-08T09:55:31;102945.98;;;1.71;48.29
62055;BME280;48653;51.742;-1.256;2023-02-08T09:57:54;102942.30;;;2.44;47.41
62055;BME280;48653;51.742;-1.256;2023-02-08T10:00:26;102938.61;;;2.37;47.05
62055;BME280;48653;51.742;-1.256;2023-02-08T10:02:46;102939.04;;;3.08;46.58
62055;BME280;48653;51.742;-1.256;2023-02-08T10:05:11;102933.61;;;3.06;46.49
62055;BME280;48653;51.742;-1.256;2023-02-08T10:07:35;102935.02;;;3.45;46.36
62055;BME280;48653;51.742;-1.256;2023-02-08T10:10:02;102934.98;;;3.00;47.16
62055;BME280;48653;51.742;-1.256;2023-02-08T10:12:33;102933.62;;;3.61;46.59
62055;BME280;48653;51.742;-1.256;2023-02-08T10:15:04;102929.53;;;3.86;46.10
62055;BME280;48653;51.742;-1.256;2023-02-08T10:17:26;102928.02;;;4.09;45.21
62055;BME280;48653;51.742;-1.256;2023-02-08T10:19:54;102924.28;;;4.13;45.42
62055;BME280;48653;51.742;-1.256;2023-02-08T10:22:17;102923.97;;;4.71;44.22
62055;BME280;48653;51.742;-1.256;2023-02-08T10:24:46;102923.80;;;4.87;43.64
62055;BME280;48653;51.742;-1.256;2023-02-08T10:27:02;102921.36;;;5.52;41.92
62055;BME280;48653;51.742;-1.256;2023-02-08T10:29:36;102918.67;;;5.87;41.91
62055;BME280;48653;51.742;-1.256;2023-02-08T10:32:01;102916.88;;;5.79;41.17
62055;BME280;48653;51.742;-1.256;2023-02-08T10:34:23;102914.92;;;5.60;40.60
62055;BME280;48653;51.742;-1.256;2023-02-08T10:36:39;102911.90;;;6.12;40.07
62055;BME280;48653;51.742;-1.256;2023-02-08T10:39:12;102903.65;;;6.85;39.41
62055;BME280;48653;51.742;-1.256;2023-02-08T10:41:32;102898.02;;;7.59;38.34
62055;BME280;48653;51.742;-1.256;2023-02-08T10:43:59;102893.95;;;7.37;38.62
62055;BME280;48653;51.742;-1.256;2023-02-08T10:46:24;102886.34;;;8.18;37.61
62055;BME280;48653;51.742;-1.256;2023-02-08T10:48:52;102881.49;;;7.88;38.05
62055;BME280;48653;51.742;-1.256;2023-02-08T10:51:11;102879.61;;;8.42;37.48
62055;BME280;48653;51.742;-1.256;2023-02-08T10:53:35;102876.18;;;9.43;36.32
62055;BME280;48653;51.742;-1.256;2023-02-08T10:56:02;102868.97;;;9.80;35.68
62055;BME280;48653;51.742;-1.256;2023-02-08T10:58:27;102869.45;;;9.91;35.49
62055;BME280;48653;51.742;-1.256;2023-02-08T11:00:53;102863.03;;;10.79;34.72
62055;BME280;48653;51.742;-1.256;2023-02-08T11:03:21;102860.76;;;10.32;34.62
62055;BME280;48653;51.742;-1.256;2023-02-08T11:05:43;102862.21;;;10.83;34.48
62055;BME280;48653;51.742;-1.256;2023-02-08T11:08:10;102853.62;;;11.64;33.63
62055;BME280;48653;51.742;-1.256;2023-02-08T11:10:34;102851.71;;;11.22;34.00
62055;BME280;48653;51.742;-1.256;2023-02-08T11:13:02;102848.46;;;11.31;33.80
62055;BME280;48653;51.742;-1.256;2023-02-08T11:15:36;102843.49;;;11.96;32.92
62055;BME280;48653;51.742;-1.256;2023-02-08T11:17:54;102834.66;;;11.94;32.93
62055;BME280;48653;51.742;-1.256;2023-02-08T11:20:30;102828.33;;;12.77;32.07
62055;BME280;48653;51.742;-1.256;2023-02-08T11:22:44;102823.89;;;12.11;32.76
62055;BME280;48653;51.742;-1.256;2023-02-08T11:25:06;102817.68;;;13.00;32.50
62055;BME280;48653;51.742;-1.256;2023-02-08T11:27:34;102807.81;;;12.30;32.91
62055;BME280;48653;51.742;-1.256;2023-02-08T11:32:22;102795.64;;;12.49;32.85
62055;BME280;48653;51.742;-1.256;2023-02-08T11:34:48;102791.17;;;12.74;32.12
62055;BME280;48653;51.742;-1.256;2023-02-08T11:37:15;102785.46;;;13.44;31.80
62055;BME280;48653;51.742;-1.256;2023-02-08T11:39:41;102774.08;;;13.18;31.66
62055;BME280;48653;51.742;-1.256;2023-02-08T11:42:04;102770.58;;;13.20;31.67
62055;BME280;48653;51.742;-1.256;2023-02-08T11:44:31;102760.38;;;13.48;31.67
62055;BME280;48653;51.742;-1.256;2023-02-08T11:46:56;102756.25;;;12.47;31.56
62055;BME280;48653;51.742;-1.256;2023-02-08T11:49:23;102751.30;;;12.61;32.69
62055;BME280;48653;51.742;-1.256;2023-02-08T11:51:46;102748.73;;;13.14;31.10
62055;BME280;48653;51.742;-1.256;2023-02-08T11:56:37;102740.37;;;12.37;33.04
62055;BME280;48653;51.742;-1.256;2023-02-08T11:59:08;102741.62;;;11.66;33.48
62055;BME280;48653;51.742;-1.256;2023-02-08T12:01:30;102740.58;;;12.52;32.37
62055;BME280;48653;51.742;-1.256;2023-02-08T12:03:55;102740.56;;;12.77;31.76
62055;BME280;48653;51.742;-1.256;2023-02-08T12:06:31;102732.06;;;13.29;32.27
62055;BME280;48653;51.742;-1.256;2023-02-08T12:08:52;102730.67;;;14.24;30.71
62055;BME280;48653;51.742;-1.256;2023-02-08T12:11:16;102729.36;;;13.77;29.99
62055;BME280;48653;51.742;-1.256;2023-02-08T12:13:48;102726.21;;;14.42;30.07
62055;BME280;48653;51.742;-1.256;2023-02-08T12:16:11;102722.71;;;15.00;30.37
62055;BME280;48653;51.742;-1.256;2023-02-08T12:18:40;102717.97;;;14.85;30.07
62055;BME280;48653;51.742;-1.256;2023-02-08T12:20:57;102718.02;;;15.12;29.76
62055;BME280;48653;51.742;-1.256;2023-02-08T12:23:30;102720.66;;;15.55;28.46
62055;BME280;48653;51.742;-1.256;2023-02-08T12:25:48;102717.84;;;16.08;28.64
62055;BME280;48653;51.742;-1.256;2023-02-08T12:28:15;102720.86;;;15.11;28.99
62055;BME280;48653;51.742;-1.256;2023-02-08T12:30:38;102715.66;;;15.96;28.30
62055;BME280;48653;51.742;-1.256;2023-02-08T12:33:12;102712.62;;;15.18;29.17
62055;BME280;48653;51.742;-1.256;2023-02-08T12:35:43;102703.95;;;15.25;28.92
62055;BME280;48653;51.742;-1.256;2023-02-08T12:37:55;102703.49;;;15.45;28.99
62055;BME280;48653;51.742;-1.256;2023-02-08T12:40:27;102702.44;;;16.30;27.97
62055;BME280;48653;51.742;-1.256;2023-02-08T12:42:53;102701.13;;;15.94;29.61
62055;BME280;48653;51.742;-1.256;2023-02-08T12:47:49;102700.00;;;13.85;31.36
62055;BME280;48653;51.742;-1.256;2023-02-08T12:50:05;102687.30;;;12.65;32.33